createdAt,value
2023-01-21T00:01:47.954Z,101487.97
2023-01-21T00:04:15.881Z,101490.63
2023-01-21T00:06:43.845Z,101489.00
2023-01-21T00:09:11.767Z,101500.88
2023-01-21T00:11:39.491Z,101506.13
2023-01-21T00:14:07.336Z,101509.84
2023-01-21T00:16:36.490Z,101501.22
2023-01-21T00:19:04.302Z,101508.03
2023-01-21T00:21:32.029Z,101509.00
2023-01-21T00:23:59.720Z,101517.59
2023-01-21T00:26:30.302Z,101512.44
2023-01-21T00:28:58.135Z,101533.19
2023-01-21T00:31:26.226Z,101532.34
2023-01-21T00:33:55.383Z,101535.78
2023-01-21T00:36:24.757Z,101535.84
2023-01-21T00:38:52.478Z,101552.31
2023-01-21T00:41:20.249Z,101546.31
2023-01-21T00:43:47.993Z,101546.22
2023-01-21T00:46:15.818Z,101558.44
2023-01-21T00:48:43.830Z,101563.59
2023-01-21T00:51:13.172Z,101559.22
2023-01-21T00:53:42.812Z,101565.25
2023-01-21T00:56:13.510Z,101566.84
2023-01-21T00:58:43.330Z,101573.16
2023-01-21T01:01:13.906Z,101577.38
2023-01-21T01:03:42.466Z,101579.16
2023-01-21T01:06:12.164Z,101588.03
2023-01-21T01:08:41.310Z,101581.97
2023-01-21T01:11:09.213Z,101592.44
2023-01-21T01:13:37.894Z,101589.06
2023-01-21T01:16:07.155Z,101581.47
2023-01-21T01:18:36.765Z,101602.16
2023-01-21T01:21:05.242Z,101606.69
2023-01-21T01:23:33.446Z,101607.41
2023-01-21T01:26:04.237Z,101611.97
2023-01-21T01:28:33.226Z,101614.47
2023-01-21T01:31:01.157Z,101609.31
2023-01-21T01:33:28.968Z,101614.50
2023-01-21T01:35:56.715Z,101617.13
2023-01-21T01:38:24.621Z,101637.94
2023-01-21T01:40:53.241Z,101634.34
2023-01-21T01:43:24.941Z,101636.88
2023-01-21T01:45:53.810Z,101643.03
2023-01-21T01:48:27.336Z,101646.47
2023-01-21T01:50:58.308Z,101654.06
2023-01-21T01:53:27.576Z,101654.25
2023-01-21T01:55:56.470Z,101655.22
2023-01-21T01:58:25.689Z,101662.91
2023-01-21T02:00:53.420Z,101665.47
2023-01-21T02:03:38.952Z,101665.47
2023-01-21T02:06:07.112Z,101672.53
2023-01-21T02:08:36.334Z,101673.38
2023-01-21T02:11:11.007Z,101673.41
2023-01-21T02:13:42.754Z,101680.34
2023-01-21T02:16:49.869Z,101682.03
2023-01-21T02:19:42.955Z,101688.22
2023-01-21T02:22:17.289Z,101690.94
2023-01-21T02:25:20.971Z,101690.88
2023-01-21T02:28:00.694Z,101699.63
2023-01-21T02:30:47.597Z,101704.16
2023-01-21T02:33:33.372Z,101710.34
2023-01-21T02:36:11.710Z,101710.59
2023-01-21T02:38:45.532Z,101719.13
2023-01-21T02:41:24.233Z,101719.19
2023-01-21T02:43:59.460Z,101721.13
2023-01-21T02:46:34.461Z,101721.22
2023-01-21T02:49:08.610Z,101726.50
2023-01-21T02:51:36.724Z,101724.72
2023-01-21T02:54:14.895Z,101729.81
2023-01-21T02:56:44.003Z,101729.06
2023-01-21T02:59:13.184Z,101733.56
2023-01-21T03:01:55.607Z,101731.97
2023-01-21T03:04:47.593Z,101739.81
2023-01-21T03:07:22.262Z,101732.06
2023-01-21T03:09:50.132Z,101739.94
2023-01-21T03:12:30.920Z,101741.72
2023-01-21T03:15:20.790Z,101743.41
2023-01-21T03:17:54.686Z,101746.78
2023-01-21T03:20:27.653Z,101751.28
2023-01-21T03:25:45.501Z,101762.56
2023-01-21T03:28:18.255Z,101760.22
2023-01-21T03:30:49.221Z,101762.63
2023-01-21T03:33:18.184Z,101761.00
2023-01-21T03:35:50.180Z,101764.38
2023-01-21T03:38:22.929Z,101764.25
2023-01-21T03:40:56.451Z,101761.66
2023-01-21T03:43:24.409Z,101766.97
2023-01-21T03:45:56.284Z,101772.25
2023-01-21T03:48:33.756Z,101775.75
2023-01-21T03:51:07.589Z,101776.50
2023-01-21T03:53:35.583Z,101773.94
2023-01-21T03:56:04.291Z,101774.84
2023-01-21T03:58:32.216Z,101782.66
2023-01-21T04:01:00.036Z,101781.69
2023-01-21T04:03:28.163Z,101786.03
2023-01-21T04:05:55.973Z,101796.56
2023-01-21T04:08:25.071Z,101798.94
2023-01-21T04:10:52.808Z,101792.88
2023-01-21T04:13:20.508Z,101808.50
2023-01-21T04:15:48.194Z,101803.38
2023-01-21T04:18:15.963Z,101805.16
2023-01-21T04:20:43.702Z,101807.84
2023-01-21T04:23:11.417Z,101817.38
2023-01-21T04:25:40.496Z,101813.06
2023-01-21T04:28:08.234Z,101815.66
2023-01-21T04:30:35.963Z,101807.03
2023-01-21T04:33:03.706Z,101815.81
2023-01-21T04:35:31.476Z,101812.41
2023-01-21T04:37:59.177Z,101819.50
2023-01-21T04:40:27.021Z,101819.41
2023-01-21T04:42:56.116Z,101816.06
2023-01-21T04:45:24.462Z,101819.72
2023-01-21T04:47:52.329Z,101829.19
2023-01-21T04:50:20.270Z,101830.88
2023-01-21T04:52:48.133Z,101834.41
2023-01-21T04:55:15.934Z,101837.91
2023-01-21T04:57:43.708Z,101837.03
2023-01-21T05:00:14.041Z,101843.94
2023-01-21T05:02:41.855Z,101846.47
2023-01-21T05:05:09.905Z,101847.34
2023-01-21T05:07:37.747Z,101847.31
2023-01-21T05:10:06.254Z,101849.91
2023-01-21T05:12:33.999Z,101848.16
2023-01-21T05:15:01.998Z,101852.38
2023-01-21T05:17:31.091Z,101854.88
2023-01-21T05:19:58.781Z,101862.63
2023-01-21T05:22:26.562Z,101852.22
2023-01-21T05:24:54.407Z,101857.28
2023-01-21T05:27:22.159Z,101857.16
2023-01-21T05:29:49.935Z,101858.81
2023-01-21T05:32:17.683Z,101868.34
2023-01-21T05:34:46.714Z,101866.63
2023-01-21T05:37:14.702Z,101872.56
2023-01-21T05:39:42.473Z,101882.97
2023-01-21T05:42:10.323Z,101863.25
2023-01-21T05:44:38.030Z,101885.56
2023-01-21T05:47:07.599Z,101886.47
2023-01-21T05:49:35.515Z,101891.66
2023-01-21T05:52:04.808Z,101889.91
2023-01-21T05:54:32.659Z,101898.53
2023-01-21T05:57:00.360Z,101902.88
2023-01-21T05:59:28.590Z,101912.47
2023-01-21T06:01:56.330Z,101913.28
2023-01-21T06:04:28.358Z,101913.34
2023-01-21T06:06:56.101Z,101916.81
2023-01-21T06:09:25.229Z,101918.44
2023-01-21T06:11:52.942Z,101936.66
2023-01-21T06:14:20.733Z,101935.00
2023-01-21T06:16:48.429Z,101933.25
2023-01-21T06:19:16.218Z,101931.53
2023-01-21T06:21:44.022Z,101938.53
2023-01-21T06:24:11.742Z,101946.41
2023-01-21T06:26:40.829Z,101955.03
2023-01-21T06:29:08.600Z,101956.81
2023-01-21T06:31:36.616Z,101962.84
2023-01-21T06:34:04.406Z,101968.09
2023-01-21T06:36:32.080Z,101963.84
2023-01-21T06:38:59.805Z,101959.47
2023-01-21T06:41:27.569Z,101968.13
2023-01-21T06:43:56.681Z,101968.03
2023-01-21T06:46:24.513Z,101966.56
2023-01-21T06:48:53.747Z,101974.25
2023-01-21T06:51:21.436Z,101977.72
2023-01-21T06:53:49.119Z,101979.47
2023-01-21T06:56:16.901Z,101968.16
2023-01-21T06:58:44.651Z,101978.75
2023-01-21T07:01:17.881Z,101959.13
2023-01-21T07:03:45.670Z,101987.34
2023-01-21T07:06:13.553Z,101990.81
2023-01-21T07:08:41.328Z,101989.09
2023-01-21T07:11:09.056Z,101992.56
2023-01-21T07:13:36.896Z,101994.34
2023-01-21T07:16:07.109Z,102004.75
2023-01-21T07:18:36.339Z,102010.06
2023-01-21T07:21:04.237Z,102004.94
2023-01-21T07:23:31.945Z,102004.97
2023-01-21T07:25:59.664Z,102022.44
2023-01-21T07:28:27.406Z,102018.94
2023-01-21T07:30:55.178Z,102027.56
2023-01-21T07:33:22.947Z,102042.22
2023-01-21T07:35:52.359Z,102039.59
2023-01-21T07:38:20.142Z,102039.53
2023-01-21T07:40:49.337Z,102047.31
2023-01-21T07:43:17.664Z,102058.56
2023-01-21T07:45:46.972Z,102053.50
2023-01-21T07:48:14.696Z,102052.47
2023-01-21T07:50:43.762Z,102057.72
2023-01-21T07:53:13.544Z,102064.66
2023-01-21T07:55:41.268Z,102060.28
2023-01-21T07:58:10.769Z,102060.34
2023-01-21T08:00:38.542Z,102058.53
2023-01-21T08:03:06.280Z,102059.34
2023-01-21T08:05:34.057Z,102079.25
2023-01-21T08:08:01.843Z,102075.03
2023-01-21T08:10:30.988Z,102067.03
2023-01-21T08:12:58.713Z,102068.75
2023-01-21T08:15:26.698Z,102076.75
2023-01-21T08:17:54.456Z,102078.44
2023-01-21T08:20:22.269Z,102076.47
2023-01-21T08:22:50.063Z,102074.78
2023-01-21T08:25:18.244Z,102075.75
2023-01-21T08:27:47.610Z,102073.84
2023-01-21T08:30:16.638Z,102073.91
2023-01-21T08:32:45.647Z,102086.81
2023-01-21T08:35:13.342Z,102101.50
2023-01-21T08:37:41.070Z,102104.88
2023-01-21T08:40:10.079Z,102102.06
2023-01-21T08:42:37.930Z,102108.06
2023-01-21T08:45:08.475Z,102112.13
2023-01-21T08:47:36.311Z,102112.91
2023-01-21T08:50:04.143Z,102124.09
2023-01-21T08:52:31.964Z,102120.53
2023-01-21T08:54:59.625Z,102122.97
2023-01-21T08:57:28.124Z,102124.50
2023-01-21T08:59:55.914Z,102138.38
2023-01-21T09:02:25.044Z,102138.31
2023-01-21T09:04:52.824Z,102134.00
2023-01-21T09:07:20.661Z,102143.50
2023-01-21T09:09:48.997Z,102139.78
2023-01-21T09:12:16.780Z,102137.94
2023-01-21T09:14:44.676Z,102149.97
2023-01-21T09:17:12.434Z,102150.03
2023-01-21T09:19:41.469Z,102147.28
2023-01-21T09:22:09.515Z,102148.88
2023-01-21T09:24:37.338Z,102152.19
2023-01-21T09:27:07.274Z,102156.47
2023-01-21T09:29:35.475Z,102155.44
2023-01-21T09:32:05.205Z,102159.75
2023-01-21T09:34:35.443Z,102145.94
2023-01-21T09:37:05.121Z,102164.84
2023-01-21T09:39:32.895Z,102168.34
2023-01-21T09:42:00.610Z,102167.44
2023-01-21T09:44:32.403Z,102175.09
2023-01-21T09:47:05.424Z,102170.72
2023-01-21T09:49:38.123Z,102170.34
2023-01-21T09:52:22.326Z,102173.16
2023-01-21T09:54:50.478Z,102180.88
2023-01-21T09:57:38.587Z,102184.50
2023-01-21T10:00:25.096Z,102185.19
2023-01-21T10:03:00.463Z,102187.63
2023-01-21T10:05:46.699Z,102191.16
2023-01-21T10:08:25.907Z,102194.66
2023-01-21T10:10:59.804Z,102188.47
2023-01-21T10:13:43.717Z,102192.75
2023-01-21T10:16:21.554Z,102190.19
2023-01-21T10:18:53.624Z,102185.84
2023-01-21T10:21:31.386Z,102188.53
2023-01-21T10:24:07.876Z,102189.47
2023-01-21T10:26:36.463Z,102191.97
2023-01-21T10:29:04.718Z,102185.03
2023-01-21T10:31:40.117Z,102190.09
2023-01-21T10:34:13.404Z,102188.47
2023-01-21T10:37:02.059Z,102195.53
2023-01-21T10:39:44.427Z,102192.03
2023-01-21T10:42:22.531Z,102195.38
2023-01-21T10:44:57.825Z,102200.59
2023-01-21T10:47:36.017Z,102203.13
2023-01-21T10:50:14.212Z,102205.56
2023-01-21T10:52:47.389Z,102191.56
2023-01-21T10:55:29.301Z,102196.91
2023-01-21T10:58:02.532Z,102193.34
2023-01-21T11:00:34.659Z,102207.28
2023-01-21T11:03:05.966Z,102207.13
2023-01-21T11:05:33.793Z,102202.06
2023-01-21T11:08:03.247Z,102201.00
2023-01-21T11:10:32.773Z,102203.50
2023-01-21T11:13:00.538Z,102202.56
2023-01-21T11:15:33.883Z,102206.84
2023-01-21T11:18:01.702Z,102204.16
2023-01-21T11:20:36.450Z,102205.88
2023-01-21T11:23:05.725Z,102198.91
2023-01-21T11:25:38.597Z,102205.00
2023-01-21T11:28:06.604Z,102205.84
2023-01-21T11:30:50.187Z,102203.19
2023-01-21T11:33:25.439Z,102210.22
2023-01-21T11:35:54.294Z,102206.78
2023-01-21T11:38:33.098Z,102205.00
2023-01-21T11:41:04.535Z,102197.88
2023-01-21T11:43:40.784Z,102205.78
2023-01-21T11:46:29.283Z,102206.44
2023-01-21T11:48:58.702Z,102190.69
2023-01-21T11:51:26.423Z,102196.78
2023-01-21T11:54:14.075Z,102195.00
2023-01-21T11:56:52.955Z,102195.84
2023-01-21T11:59:25.638Z,102191.47
2023-01-21T12:01:57.867Z,102195.56
2023-01-21T12:04:27.474Z,102193.06
2023-01-21T12:06:58.162Z,102184.28
2023-01-21T12:09:27.229Z,102188.50
2023-01-21T12:12:26.279Z,102188.53
2023-01-21T12:14:59.105Z,102186.78
2023-01-21T12:17:48.336Z,102181.59
2023-01-21T12:20:26.102Z,102174.59
2023-01-21T12:23:20.926Z,102172.00
2023-01-21T12:25:57.426Z,102171.88
2023-01-21T12:28:52.703Z,102167.19
2023-01-21T12:31:29.446Z,102167.03
2023-01-21T12:34:07.138Z,102173.03
2023-01-21T12:36:41.627Z,102147.25
2023-01-21T12:39:22.618Z,102169.34
2023-01-21T12:42:00.879Z,102160.72
2023-01-21T12:44:34.928Z,102161.50
2023-01-21T12:47:08.629Z,102164.97
2023-01-21T12:49:53.655Z,102171.81
2023-01-21T12:52:26.174Z,102161.69
2023-01-21T12:55:02.850Z,102178.13
2023-01-21T12:57:37.229Z,102179.69
2023-01-21T13:00:14.944Z,102176.28
2023-01-21T13:02:52.851Z,102183.94
2023-01-21T13:05:27.742Z,102182.09
2023-01-21T13:08:04.147Z,102189.72
2023-01-21T13:10:36.731Z,102195.59
2023-01-21T13:13:12.066Z,102190.47
2023-01-21T13:15:44.832Z,102189.59
2023-01-21T13:18:17.584Z,102181.75
2023-01-21T13:20:54.691Z,102189.31
2023-01-21T13:23:30.427Z,102183.06
2023-01-21T13:26:04.833Z,102166.75
2023-01-21T13:28:38.598Z,102173.59
2023-01-21T13:31:13.101Z,102192.06
2023-01-21T13:33:53.628Z,102192.97
2023-01-21T13:36:39.484Z,102187.00
2023-01-21T13:39:19.162Z,102193.09
2023-01-21T13:41:57.606Z,102203.56
2023-01-21T13:44:55.556Z,102195.75
2023-01-21T13:47:38.128Z,102202.16
2023-01-21T13:50:19.275Z,102207.19
2023-01-21T13:53:06.326Z,102216.75
2023-01-21T13:55:46.177Z,102209.91
2023-01-21T13:58:16.613Z,102217.59
2023-01-21T14:00:47.782Z,102218.41
2023-01-21T14:03:28.939Z,102222.00
2023-01-21T14:06:01.481Z,102216.97
2023-01-21T14:08:35.885Z,102231.69
2023-01-21T14:11:09.439Z,102235.97
2023-01-21T14:14:15.331Z,102230.78
2023-01-21T14:17:06.979Z,102230.09
2023-01-21T14:19:55.207Z,102237.34
2023-01-21T14:22:42.201Z,102240.88
2023-01-21T14:25:28.983Z,102227.09
2023-01-21T14:28:08.906Z,102233.09
2023-01-21T14:30:42.551Z,102240.16
2023-01-21T14:33:14.624Z,102227.88
2023-01-21T14:35:48.998Z,102230.44
2023-01-21T14:38:26.727Z,102241.84
2023-01-21T14:41:05.959Z,102238.38
2023-01-21T14:43:49.040Z,102233.09
2023-01-21T14:46:32.677Z,102239.94
2023-01-21T14:49:09.328Z,102239.88
2023-01-21T14:51:44.065Z,102244.09
2023-01-21T14:54:14.690Z,102232.31
2023-01-21T14:56:53.652Z,102248.69
2023-01-21T14:59:35.585Z,102250.25
2023-01-21T15:02:19.215Z,102250.13
2023-01-21T15:04:54.473Z,102250.22
2023-01-21T15:07:25.985Z,102241.50
2023-01-21T15:09:56.074Z,102243.19
2023-01-21T15:12:28.215Z,102245.00
2023-01-21T15:14:59.773Z,102229.63
2023-01-21T15:17:45.842Z,102245.91
2023-01-21T15:20:40.237Z,102254.72
2023-01-21T15:23:20.393Z,102252.09
2023-01-21T15:26:19.148Z,102258.06
2023-01-21T15:28:48.248Z,102249.44
2023-01-21T15:31:41.241Z,102245.84
2023-01-21T15:34:15.711Z,102252.84
2023-01-21T15:36:50.348Z,102258.88
2023-01-21T15:39:24.283Z,102257.13
2023-01-21T15:42:03.692Z,102258.19
2023-01-21T15:44:48.490Z,102218.16
2023-01-21T15:47:52.458Z,102257.78
2023-01-21T15:50:23.023Z,102263.81
2023-01-21T15:53:06.858Z,102256.03
2023-01-21T15:56:05.635Z,102257.22
2023-01-21T15:58:43.552Z,102258.94
2023-01-21T16:01:21.241Z,102264.97
2023-01-21T16:04:20.778Z,102263.28
2023-01-21T16:07:01.806Z,102258.94
2023-01-21T16:09:36.985Z,102263.34
2023-01-21T16:12:17.434Z,102258.94
2023-01-21T16:14:59.809Z,102266.78
2023-01-21T16:17:40.970Z,102271.09
2023-01-21T16:20:12.575Z,102263.34
2023-01-21T16:22:44.815Z,102280.53
2023-01-21T16:25:15.932Z,102275.31
2023-01-21T16:27:48.787Z,102279.69
2023-01-21T16:30:22.053Z,102276.25
2023-01-21T16:33:08.157Z,102285.69
2023-01-21T16:35:43.752Z,102283.13
2023-01-21T16:38:15.667Z,102282.25
2023-01-21T16:40:43.473Z,102278.75
2023-01-21T16:43:26.514Z,102278.75
2023-01-21T16:45:56.399Z,102284.88
2023-01-21T16:48:26.802Z,102280.63
2023-01-21T16:50:55.468Z,102279.00
2023-01-21T16:53:24.917Z,102266.78
2023-01-21T16:55:55.915Z,102266.78
2023-01-21T16:58:27.726Z,102276.44
2023-01-21T17:01:06.502Z,102280.03
2023-01-21T17:03:34.803Z,102280.97
2023-01-21T17:06:11.323Z,102280.22
2023-01-21T17:08:40.482Z,102269.78
2023-01-21T17:11:10.861Z,102274.13
2023-01-21T17:13:44.097Z,102276.59
2023-01-21T17:16:23.761Z,102274.78
2023-01-21T17:18:55.878Z,102266.94
2023-01-21T17:21:32.552Z,102273.88
2023-01-21T17:24:03.772Z,102271.31
2023-01-21T17:26:36.789Z,102266.16
2023-01-21T17:29:18.627Z,102277.47
2023-01-21T17:31:47.240Z,102272.25
2023-01-21T17:34:23.437Z,102272.16
2023-01-21T17:36:52.887Z,102272.28
2023-01-21T17:40:00.726Z,102275.75
2023-01-21T17:42:38.941Z,102283.50
2023-01-21T17:45:19.947Z,102289.47
2023-01-21T17:48:07.901Z,102285.88
2023-01-21T17:50:36.708Z,102294.75
2023-01-21T17:53:07.285Z,102299.19
2023-01-21T17:55:36.554Z,102307.19
2023-01-21T17:58:24.659Z,102303.66
2023-01-21T18:00:53.785Z,102293.13
2023-01-21T18:03:21.509Z,102286.25
2023-01-21T18:05:49.651Z,102300.06
2023-01-21T18:08:18.891Z,102301.84
2023-01-21T18:10:47.832Z,102312.28
2023-01-21T18:13:18.723Z,102310.50
2023-01-21T18:15:48.258Z,102317.44
2023-01-21T18:18:19.914Z,102319.41
2023-01-21T18:20:48.087Z,102309.22
2023-01-21T18:23:18.109Z,102309.34
2023-01-21T18:25:48.666Z,102309.31
2023-01-21T18:28:19.260Z,102311.22
2023-01-21T18:30:47.164Z,102308.66
2023-01-21T18:33:15.578Z,102311.22
2023-01-21T18:35:46.629Z,102307.66
2023-01-21T18:38:15.974Z,102309.38
2023-01-21T18:40:43.715Z,102312.88
2023-01-21T18:43:11.615Z,102306.59
2023-01-21T18:45:40.622Z,102314.34
2023-01-21T18:48:11.571Z,102306.53
2023-01-21T18:50:39.383Z,102316.06
2023-01-21T18:53:15.107Z,102319.47
2023-01-21T18:55:45.244Z,102311.66
2023-01-21T18:58:14.618Z,102303.81
2023-01-21T19:00:42.848Z,102303.78
2023-01-21T19:03:12.986Z,102303.81
2023-01-21T19:05:43.004Z,102293.72
2023-01-21T19:08:16.069Z,102308.16
2023-01-21T19:10:43.842Z,102300.34
2023-01-21T19:13:12.355Z,102302.84
2023-01-21T19:15:41.684Z,102296.88
2023-01-21T19:18:11.937Z,102293.56
2023-01-21T19:20:41.752Z,102292.59
2023-01-21T19:23:15.500Z,102296.03
2023-01-21T19:25:43.527Z,102297.59
2023-01-21T19:28:13.148Z,102291.50
2023-01-21T19:30:45.124Z,102294.09
2023-01-21T19:33:13.404Z,102296.81
2023-01-21T19:35:45.044Z,102294.16
2023-01-21T19:38:17.419Z,102295.19
2023-01-21T19:40:46.809Z,102291.59
2023-01-21T19:43:16.540Z,102288.09
2023-01-21T19:45:45.310Z,102281.13
2023-01-21T19:48:15.045Z,102280.97
2023-01-21T19:50:43.146Z,102284.59
2023-01-21T19:53:11.812Z,102280.97
2023-01-21T19:55:42.228Z,102279.22
2023-01-21T19:58:17.830Z,102280.22
2023-01-21T20:00:45.761Z,102278.28
2023-01-21T20:03:13.701Z,102282.72
2023-01-21T20:05:41.679Z,102290.56
2023-01-21T20:08:12.410Z,102287.22
2023-01-21T20:10:41.577Z,102291.56
2023-01-21T20:13:12.776Z,102279.66
2023-01-21T20:15:42.542Z,102282.19
2023-01-21T20:18:18.285Z,102281.31
2023-01-21T20:20:46.310Z,102283.84
2023-01-21T20:23:15.726Z,102275.94
2023-01-21T20:25:45.993Z,102274.88
2023-01-21T20:28:19.254Z,102270.38
2023-01-21T20:30:47.780Z,102280.81
2023-01-21T20:33:17.313Z,102272.16
2023-01-21T20:35:47.316Z,102280.88
2023-01-21T20:38:18.973Z,102272.16
2023-01-21T20:40:47.983Z,102267.91
2023-01-21T20:43:16.880Z,102263.63
2023-01-21T20:45:48.844Z,102269.47
2023-01-21T20:48:20.272Z,102272.97
2023-01-21T20:50:48.642Z,102272.09
2023-01-21T20:53:16.486Z,102273.06
2023-01-21T20:55:46.711Z,102273.78
2023-01-21T20:58:17.335Z,102265.16
2023-01-21T21:00:46.542Z,102270.44
2023-01-21T21:03:16.545Z,102263.53
2023-01-21T21:05:44.705Z,102264.41
2023-01-21T21:08:15.889Z,102265.22
2023-01-21T21:10:43.837Z,102268.91
2023-01-21T21:13:12.936Z,102268.72
2023-01-21T21:15:45.648Z,102266.22
2023-01-21T21:18:15.058Z,102237.66
2023-01-21T21:20:46.325Z,102254.84
2023-01-21T21:23:15.301Z,102254.84
2023-01-21T21:25:46.236Z,102247.22
2023-01-21T21:28:15.709Z,102240.41
2023-01-21T21:30:45.230Z,102230.94
2023-01-21T21:33:20.203Z,102240.41
2023-01-21T21:35:48.464Z,102219.16
2023-01-21T21:38:18.014Z,102250.72
2023-01-21T21:40:47.455Z,102247.28
2023-01-21T21:43:32.669Z,102235.88
2023-01-21T21:46:22.753Z,102244.41
2023-01-21T21:48:52.019Z,102242.75
2023-01-21T21:51:21.685Z,102242.59
2023-01-21T21:53:50.096Z,102245.19
2023-01-21T21:56:19.881Z,102240.19
2023-01-21T21:58:48.759Z,102238.31
2023-01-21T22:01:20.009Z,102237.50
2023-01-21T22:03:48.058Z,102239.47
2023-01-21T22:06:18.317Z,102242.78
2023-01-21T22:08:46.498Z,102235.81
2023-01-21T22:11:16.061Z,102225.34
2023-01-21T22:13:44.567Z,102228.88
2023-01-21T22:16:14.441Z,102225.44
2023-01-21T22:18:43.985Z,102226.97
2023-01-21T22:21:14.593Z,102234.91
2023-01-21T22:23:43.116Z,102231.38
2023-01-21T22:26:14.009Z,102230.66
2023-01-21T22:28:43.261Z,102229.84
2023-01-21T22:31:13.016Z,102227.22
2023-01-21T22:33:40.978Z,102222.16
2023-01-21T22:36:13.490Z,102222.94
2023-01-21T22:38:41.547Z,102222.00
2023-01-21T22:41:11.616Z,102226.34
2023-01-21T22:43:41.646Z,102232.44
2023-01-21T22:46:12.174Z,102230.75
2023-01-21T22:48:41.519Z,102204.28
2023-01-21T22:51:13.447Z,102223.19
2023-01-21T22:53:41.376Z,102217.03
2023-01-21T22:56:09.272Z,102213.59
2023-01-21T22:58:37.054Z,102214.34
2023-01-21T23:01:05.995Z,102214.50
2023-01-21T23:03:33.867Z,102211.81
2023-01-21T23:06:05.537Z,102216.88
2023-01-21T23:08:34.689Z,102218.59
2023-01-21T23:11:03.803Z,102220.22
2023-01-21T23:13:31.834Z,102221.00
2023-01-21T23:15:59.875Z,102226.09
2023-01-21T23:18:29.436Z,102214.72
2023-01-21T23:20:57.519Z,102220.47
2023-01-21T23:23:25.817Z,102216.28
2023-01-21T23:25:54.851Z,102220.63
2023-01-21T23:28:24.514Z,102202.13
2023-01-21T23:30:52.489Z,102199.47
2023-01-21T23:33:20.319Z,102196.91
2023-01-21T23:35:55.359Z,102190.66
2023-01-21T23:38:23.694Z,102178.81
2023-01-21T23:40:51.479Z,102194.16
2023-01-21T23:43:24.392Z,102192.38
2023-01-21T23:45:52.203Z,102172.84
2023-01-21T23:48:19.887Z,102180.59
2023-01-21T23:50:47.748Z,102175.38
2023-01-21T23:53:15.552Z,102175.28
2023-01-21T23:55:43.360Z,102172.50
2023-01-21T23:58:11.266Z,102173.38
